Time;durP1;ratioP1;P1;durP2;ratioP2;P2;SDS_P1;SDS_P2;PMS_P1;PMS_P2;Temp;Humidity;BMP_temperature;BMP_pressure;BME280_temperature;BME280_humidity;BME280_pressure;Samples;Min_cycle;Max_cycle;Signal;HPM_P1;HPM_P2
2021/11/14 00:01:05;;;;;;;32.80;18.02;;;7.90;99.90;;;;;;4965031;28;20034;-70
2021/11/14 00:03:32;;;;;;;28.92;16.88;;;7.90;99.90;;;;;;4960497;28;20027;-70
2021/11/14 00:05:58;;;;;;;35.50;17.63;;;8.00;99.90;;;;;;4966046;28;20104;-69
2021/11/14 00:08:24;;;;;;;34.60;18.27;;;7.90;99.90;;;;;;4972477;28;20074;-68
2021/11/14 00:10:54;;;;;;;37.05;18.67;;;8.00;99.90;;;;;;4966644;28;20106;-69
2021/11/14 00:13:20;;;;;;;35.40;18.15;;;8.00;99.90;;;;;;4983081;28;20366;-71
2021/11/14 00:15:46;;;;;;;35.37;18.93;;;8.00;99.90;;;;;;4970789;28;20031;-70
2021/11/14 00:18:12;;;;;;;36.03;19.60;;;8.00;99.90;;;;;;4972513;28;20042;-69
2021/11/14 00:20:39;;;;;;;35.45;19.25;;;8.00;99.90;;;;;;4963030;28;20030;-70
2021/11/14 00:23:05;;;;;;;36.58;19.00;;;7.90;99.90;;;;;;4966978;28;20502;-69
2021/11/14 00:25:31;;;;;;;35.17;19.40;;;7.90;99.90;;;;;;4968446;28;20042;-70
2021/11/14 00:27:57;;;;;;;37.63;20.30;;;7.90;99.90;;;;;;4969247;28;20050;-69
2021/11/14 00:30:22;;;;;;;40.78;20.30;;;7.90;99.90;;;;;;4968276;28;20031;-69
2021/11/14 00:32:51;;;;;;;37.97;19.85;;;7.90;99.90;;;;;;4967520;28;20056;-70
2021/11/14 00:35:17;;;;;;;39.75;19.67;;;7.90;99.90;;;;;;4967136;28;20505;-69
2021/11/14 00:37:44;;;;;;;38.05;20.75;;;7.90;99.90;;;;;;4970932;28;20397;-70
2021/11/14 00:40:16;;;;;;;40.10;20.98;;;7.80;99.90;;;;;;4978071;28;20058;-69
2021/11/14 00:42:41;;;;;;;40.92;20.58;;;7.80;99.90;;;;;;4977262;28;20030;-69
2021/11/14 00:45:08;;;;;;;38.47;21.65;;;7.80;99.90;;;;;;4978973;28;20080;-70
2021/11/14 00:47:34;;;;;;;42.67;21.73;;;7.70;99.90;;;;;;4968233;28;20458;-70
2021/11/14 00:50:05;;;;;;;42.83;21.13;;;7.70;99.90;;;;;;4962670;28;20031;-69
2021/11/14 00:52:31;;;;;;;42.50;22.40;;;7.70;99.90;;;;;;4972106;28;20240;-70
2021/11/14 00:54:56;;;;;;;39.05;21.58;;;7.70;99.90;;;;;;4966864;28;20113;-69
2021/11/14 00:57:22;;;;;;;43.90;22.48;;;7.80;99.90;;;;;;4968267;28;20042;-69
2021/11/14 00:59:47;;;;;;;40.22;20.83;;;7.80;99.90;;;;;;4965744;28;20031;-68
2021/11/14 01:02:13;;;;;;;40.42;21.08;;;7.80;99.90;;;;;;4976717;28;20098;-70
2021/11/14 01:04:38;;;;;;;42.30;21.77;;;7.80;99.90;;;;;;4980697;28;20390;-69
2021/11/14 01:07:04;;;;;;;42.67;20.65;;;7.80;99.90;;;;;;4968868;28;20038;-69
2021/11/14 01:09:30;;;;;;;39.95;19.88;;;7.80;99.90;;;;;;4967878;28;20055;-70
2021/11/14 01:14:23;;;;;;;41.92;21.63;;;7.90;99.90;;;;;;5004616;28;20146;-72
2021/11/14 01:16:49;;;;;;;42.47;22.42;;;7.90;99.90;;;;;;5005432;28;20069;-72
2021/11/14 01:19:15;;;;;;;43.75;21.80;;;7.90;99.90;;;;;;5002122;23;20039;-85
2021/11/14 01:21:45;;;;;;;47.03;22.08;;;7.80;99.90;;;;;;4963080;28;20470;-85
2021/11/14 01:24:13;;;;;;;43.80;22.17;;;7.80;99.90;;;;;;4961510;28;20031;-85
2021/11/14 01:26:39;;;;;;;44.95;21.08;;;7.80;99.90;;;;;;4966891;28;20039;-86
2021/11/14 01:29:05;;;;;;;47.85;22.60;;;7.90;99.90;;;;;;4983048;28;20075;-86
2021/11/14 01:31:31;;;;;;;49.53;22.65;;;7.90;99.90;;;;;;4987344;28;20030;-86
2021/11/14 01:33:57;;;;;;;45.72;22.30;;;7.90;99.90;;;;;;4986466;28;20023;-86
2021/11/14 01:36:24;;;;;;;42.53;21.77;;;7.80;99.90;;;;;;4986836;28;20034;-87
2021/11/14 01:38:50;;;;;;;45.40;21.65;;;7.80;99.90;;;;;;4987636;28;20026;-86
2021/11/14 01:41:16;;;;;;;41.67;21.40;;;7.80;99.90;;;;;;4986691;28;20027;-86
2021/11/14 01:43:50;;;;;;;40.53;21.42;;;7.80;99.90;;;;;;4986333;28;20030;-86
2021/11/14 01:46:16;;;;;;;37.25;20.02;;;7.80;99.90;;;;;;4986866;28;20058;-87
2021/11/14 01:48:43;;;;;;;42.08;20.58;;;7.80;99.90;;;;;;4986983;28;20034;-85
2021/11/14 01:51:10;;;;;;;39.75;20.13;;;7.90;99.90;;;;;;4986245;28;20026;-87
2021/11/14 01:53:37;;;;;;;42.35;19.70;;;7.90;99.90;;;;;;4986272;28;20049;-86
2021/11/14 01:56:09;;;;;;;47.15;22.40;;;7.90;99.90;;;;;;4989003;28;20030;-86
2021/11/14 01:58:35;;;;;;;44.45;22.33;;;7.90;99.90;;;;;;4990534;28;20118;-86
2021/11/14 02:01:08;;;;;;;45.80;23.23;;;7.90;99.90;;;;;;4991302;28;20439;-87
2021/11/14 02:03:38;;;;;;;48.63;22.52;;;7.80;99.90;;;;;;4989663;28;20113;-86
2021/11/14 02:06:06;;;;;;;52.05;23.77;;;7.80;99.90;;;;;;4990048;28;20041;-86
2021/11/14 02:08:34;;;;;;;47.95;23.48;;;7.70;99.90;;;;;;4985190;28;20316;-86
2021/11/14 02:11:00;;;;;;;47.60;23.00;;;7.70;99.90;;;;;;4989718;28;20028;-86
2021/11/14 02:13:26;;;;;;;47.80;22.15;;;7.60;99.90;;;;;;4989536;28;20117;-86
2021/11/14 02:15:52;;;;;;;47.13;22.63;;;7.60;99.90;;;;;;4990276;28;20061;-85
2021/11/14 02:18:18;;;;;;;50.05;22.52;;;7.60;99.90;;;;;;4990142;28;20046;-84
2021/11/14 02:20:46;;;;;;;43.53;22.33;;;7.60;99.90;;;;;;5001424;28;20026;-85
2021/11/14 02:23:16;;;;;;;41.88;20.75;;;7.50;99.90;;;;;;4989142;28;20030;-86
2021/11/14 02:25:42;;;;;;;47.75;21.55;;;7.50;99.90;;;;;;4989855;28;20030;-86
2021/11/14 02:28:08;;;;;;;42.50;20.23;;;7.50;99.90;;;;;;4989115;28;20046;-85
2021/11/14 02:30:34;;;;;;;47.05;21.63;;;7.50;99.90;;;;;;4990001;28;20084;-85
2021/11/14 02:33:00;;;;;;;48.65;22.50;;;7.50;99.90;;;;;;4986820;28;20042;-84
2021/11/14 02:35:26;;;;;;;51.15;21.90;;;7.40;99.90;;;;;;4988373;28;20448;-86
2021/11/14 02:37:52;;;;;;;48.67;21.95;;;7.40;99.90;;;;;;4990268;28;20263;-86
2021/11/14 02:40:19;;;;;;;46.15;21.52;;;7.40;99.90;;;;;;4988683;28;20102;-85
2021/11/14 02:42:47;;;;;;;43.72;22.00;;;7.40;99.90;;;;;;4988657;28;20022;-85
2021/11/14 02:45:14;;;;;;;45.70;21.50;;;7.40;99.90;;;;;;4989215;28;20034;-85
2021/11/14 02:47:40;;;;;;;44.20;22.23;;;7.40;99.90;;;;;;4988217;28;20038;-86
2021/11/14 02:50:08;;;;;;;49.60;22.55;;;7.30;99.90;;;;;;4987923;28;20403;-85
2021/11/14 02:52:33;;;;;;;47.42;21.73;;;7.30;99.90;;;;;;4987513;28;20057;-84
2021/11/14 02:54:59;;;;;;;46.97;21.45;;;7.30;99.90;;;;;;4988872;28;20448;-86
2021/11/14 02:57:25;;;;;;;46.70;21.50;;;7.30;99.90;;;;;;4981075;28;20030;-85
2021/11/14 02:59:51;;;;;;;47.53;21.13;;;7.30;99.90;;;;;;4990215;28;20026;-85
2021/11/14 03:02:17;;;;;;;48.15;21.95;;;7.20;99.90;;;;;;4988573;28;20034;-85
2021/11/14 03:04:43;;;;;;;48.05;21.98;;;7.20;99.90;;;;;;4987241;28;20033;-85
2021/11/14 03:07:10;;;;;;;47.88;22.02;;;7.20;99.90;;;;;;4989841;28;20027;-86
2021/11/14 03:09:36;;;;;;;48.95;22.85;;;7.20;99.90;;;;;;4985472;28;20027;-85
2021/11/14 03:12:02;;;;;;;53.58;22.58;;;7.20;99.90;;;;;;4989887;28;20414;-86
2021/11/14 03:14:28;;;;;;;48.63;21.77;;;7.20;99.90;;;;;;4988604;28;20090;-86
2021/11/14 03:16:54;;;;;;;48.15;21.80;;;7.20;99.90;;;;;;4988608;28;20044;-85
2021/11/14 03:19:21;;;;;;;62.40;23.92;;;7.20;99.90;;;;;;4987586;28;20113;-86
2021/11/14 03:21:48;;;;;;;63.67;22.90;;;7.20;99.90;;;;;;4988143;28;20081;-86
2021/11/14 03:24:15;;;;;;;62.17;23.38;;;7.20;99.90;;;;;;4989255;28;20512;-85
2021/11/14 03:26:41;;;;;;;64.10;23.25;;;7.20;99.90;;;;;;4990183;28;20030;-85
2021/11/14 03:29:06;;;;;;;66.80;23.83;;;7.20;99.90;;;;;;4982449;28;20084;-86
2021/11/14 03:31:32;;;;;;;58.95;22.83;;;7.20;99.90;;;;;;4981643;28;20038;-86
2021/11/14 03:33:58;;;;;;;62.78;22.98;;;7.20;99.90;;;;;;4987834;28;20037;-86
2021/11/14 03:36:25;;;;;;;55.15;23.27;;;7.20;99.90;;;;;;4988352;28;20429;-85
2021/11/14 03:38:54;;;;;;;56.20;23.85;;;7.20;99.90;;;;;;4988246;28;20030;-86
2021/11/14 03:41:22;;;;;;;56.00;23.17;;;7.20;99.90;;;;;;4988696;28;20118;-88
2021/11/14 03:43:49;;;;;;;57.47;24.05;;;7.20;99.90;;;;;;4986512;28;20456;-87
2021/11/14 03:46:15;;;;;;;51.92;23.23;;;7.30;99.90;;;;;;4977758;28;20059;-87
2021/11/14 03:48:43;;;;;;;51.58;22.77;;;7.30;99.90;;;;;;4973306;28;20113;-86
2021/11/14 03:51:10;;;;;;;48.33;21.65;;;7.30;99.90;;;;;;4988332;28;20125;-86
2021/11/14 03:53:36;;;;;;;50.88;22.75;;;7.40;99.90;;;;;;4992305;28;20033;-86
2021/11/14 03:56:04;;;;;;;48.95;21.17;;;7.40;99.90;;;;;;4983566;28;20479;-86
2021/11/14 03:58:29;;;;;;;57.72;23.55;;;7.40;99.90;;;;;;4985657;28;20109;-85
2021/11/14 04:00:57;;;;;;;56.20;23.30;;;7.50;99.90;;;;;;4989384;28;20090;-86
2021/11/14 04:03:23;;;;;;;53.85;23.10;;;7.50;99.90;;;;;;4988390;28;20022;-86
2021/11/14 04:05:49;;;;;;;54.42;22.92;;;7.50;99.90;;;;;;4987353;28;20053;-86
2021/11/14 04:08:18;;;;;;;54.15;22.67;;;7.50;99.90;;;;;;4987251;28;20450;-86
2021/11/14 04:10:47;;;;;;;62.90;22.88;;;7.50;99.90;;;;;;4987430;28;20026;-87
2021/11/14 04:13:13;;;;;;;58.42;22.70;;;7.50;99.90;;;;;;4988137;28;20462;-86
2021/11/14 04:15:39;;;;;;;56.15;23.33;;;7.50;99.90;;;;;;4987708;28;20076;-85
2021/11/14 04:18:05;;;;;;;61.20;24.05;;;7.50;99.90;;;;;;4985830;28;20474;-86
2021/11/14 04:20:33;;;;;;;71.00;23.38;;;7.60;99.90;;;;;;4986986;28;20478;-86
2021/11/14 04:22:59;;;;;;;67.45;23.75;;;7.60;99.90;;;;;;4987374;28;20104;-87
2021/11/14 04:25:26;;;;;;;61.80;23.63;;;7.60;99.90;;;;;;4986899;28;20065;-85
2021/11/14 04:27:52;;;;;;;70.47;24.88;;;7.60;99.90;;;;;;4995606;28;20029;-85
2021/11/14 04:30:18;;;;;;;65.03;23.55;;;7.60;99.90;;;;;;5003689;28;20076;-86
2021/11/14 04:32:44;;;;;;;63.20;23.15;;;7.50;99.90;;;;;;4988366;28;20026;-86
2021/11/14 04:35:11;;;;;;;59.85;24.05;;;7.50;99.90;;;;;;4987350;28;20034;-86
2021/11/14 04:37:37;;;;;;;64.55;24.70;;;7.50;99.90;;;;;;4986908;28;20619;-86
2021/11/14 04:40:05;;;;;;;58.60;23.20;;;7.50;99.90;;;;;;4987576;28;20034;-86
2021/11/14 04:42:31;;;;;;;57.13;22.58;;;7.50;99.90;;;;;;4986962;28;20029;-86
2021/11/14 04:44:56;;;;;;;58.95;24.48;;;7.50;99.90;;;;;;4986560;28;20441;-86
2021/11/14 04:47:22;;;;;;;61.60;22.77;;;7.50;99.90;;;;;;4987106;28;20083;-86
2021/11/14 04:49:48;;;;;;;52.65;21.83;;;7.50;99.90;;;;;;4986694;28;20099;-87
2021/11/14 04:52:14;;;;;;;61.25;22.48;;;7.50;99.90;;;;;;4988502;28;20072;-85
2021/11/14 04:54:39;;;;;;;62.40;22.95;;;7.50;99.90;;;;;;4986410;28;20045;-86
2021/11/14 04:57:05;;;;;;;54.88;20.48;;;7.50;99.90;;;;;;4979189;28;20456;-85
2021/11/14 04:59:31;;;;;;;51.25;22.02;;;7.50;99.90;;;;;;4986065;28;20022;-86
2021/11/14 05:01:56;;;;;;;54.72;21.33;;;7.50;99.90;;;;;;4987304;28;20072;-86
2021/11/14 05:04:22;;;;;;;50.50;21.55;;;7.50;99.90;;;;;;4987104;28;20391;-86
2021/11/14 05:06:49;;;;;;;54.55;21.25;;;7.50;99.90;;;;;;4990095;28;20406;-86
2021/11/14 05:09:14;;;;;;;50.80;20.15;;;7.50;99.90;;;;;;4987484;28;20455;-85
2021/11/14 05:11:40;;;;;;;60.95;22.00;;;7.60;99.90;;;;;;4986302;28;20122;-85
2021/11/14 05:14:06;;;;;;;51.78;20.67;;;7.50;99.90;;;;;;4986027;28;20170;-86
2021/11/14 05:16:31;;;;;;;57.22;20.98;;;7.50;99.90;;;;;;4986830;28;20064;-86
2021/11/14 05:18:57;;;;;;;47.90;19.77;;;7.50;99.90;;;;;;4986563;28;20587;-85
2021/11/14 05:21:23;;;;;;;53.53;20.70;;;7.50;99.90;;;;;;4987168;28;20019;-85
2021/11/14 05:23:49;;;;;;;53.30;20.70;;;7.50;99.90;;;;;;4985565;28;20054;-85
2021/11/14 05:26:15;;;;;;;51.08;19.88;;;7.60;99.90;;;;;;4987172;28;20034;-85
2021/11/14 05:28:41;;;;;;;54.35;19.88;;;7.60;99.90;;;;;;4988519;28;20482;-86
2021/11/14 05:31:06;;;;;;;54.92;19.85;;;7.60;99.90;;;;;;4989908;28;20034;-86
2021/11/14 05:33:32;;;;;;;50.30;19.90;;;7.60;99.90;;;;;;4989554;28;20487;-86
2021/11/14 05:35:58;;;;;;;54.05;20.15;;;7.60;99.90;;;;;;4990511;28;20105;-86
2021/11/14 05:38:24;;;;;;;52.08;20.48;;;7.60;99.90;;;;;;4990260;28;20456;-86
2021/11/14 05:40:49;;;;;;;52.17;19.88;;;7.70;99.90;;;;;;4990384;28;20034;-87
2021/11/14 05:43:15;;;;;;;55.80;21.27;;;7.70;99.90;;;;;;4989515;28;20034;-85
2021/11/14 05:45:42;;;;;;;60.85;20.45;;;7.70;99.90;;;;;;4989189;28;20109;-86
2021/11/14 05:48:08;;;;;;;59.55;21.92;;;7.70;99.90;;;;;;4990934;28;20513;-86
2021/11/14 05:50:34;;;;;;;68.93;22.60;;;7.70;99.90;;;;;;4989168;28;20045;-86
2021/11/14 05:53:00;;;;;;;62.35;22.10;;;7.70;99.90;;;;;;4988731;28;20114;-86
2021/11/14 05:55:26;;;;;;;71.68;22.63;;;7.70;99.90;;;;;;4989593;28;20514;-86
2021/11/14 05:57:57;;;;;;;72.13;23.60;;;7.70;99.90;;;;;;4989139;28;20095;-86
2021/11/14 06:00:34;;;;;;;67.80;23.85;;;7.60;99.90;;;;;;4990070;28;20397;-86
2021/11/14 06:05:56;;;;;;;64.50;22.65;;;7.70;99.90;;;;;;4986664;28;20030;-86
2021/11/14 06:08:21;;;;;;;68.53;23.55;;;7.60;99.90;;;;;;4986795;28;20023;-86
2021/11/14 06:10:51;;;;;;;64.32;23.52;;;7.60;99.90;;;;;;4988433;28;20387;-86
2021/11/14 06:13:26;;;;;;;71.03;23.85;;;7.60;99.90;;;;;;4992560;28;20025;-85
2021/11/14 06:15:52;;;;;;;67.72;22.95;;;7.60;99.90;;;;;;4983586;28;20607;-86
2021/11/14 06:18:18;;;;;;;76.13;23.50;;;7.60;99.90;;;;;;4982260;28;20039;-86
2021/11/14 06:20:44;;;;;;;75.32;23.65;;;7.60;99.90;;;;;;4989343;28;20055;-86
2021/11/14 06:23:10;;;;;;;76.80;23.90;;;7.60;99.90;;;;;;4998214;28;20107;-87
2021/11/14 06:25:36;;;;;;;76.65;24.30;;;7.60;99.90;;;;;;4990880;28;20090;-85
2021/11/14 06:28:03;;;;;;;77.30;24.42;;;7.60;99.90;;;;;;4989199;28;20054;-85
2021/11/14 06:30:28;;;;;;;77.63;24.67;;;7.60;99.90;;;;;;4989328;28;20062;-86
2021/11/14 06:32:54;;;;;;;79.93;24.10;;;7.60;99.90;;;;;;4985482;28;20026;-86
2021/11/14 06:35:20;;;;;;;80.03;24.15;;;7.60;99.90;;;;;;4988831;28;20030;-85
2021/11/14 06:37:46;;;;;;;70.20;22.42;;;7.60;99.90;;;;;;4991300;28;20023;-86
2021/11/14 06:40:12;;;;;;;76.45;22.88;;;7.60;99.90;;;;;;4991455;28;20172;-85
2021/11/14 06:42:38;;;;;;;76.57;23.00;;;7.60;99.90;;;;;;4985666;28;20054;-86
2021/11/14 06:45:05;;;;;;;77.35;23.10;;;7.60;99.90;;;;;;4990753;28;20027;-85
2021/11/14 06:47:31;;;;;;;59.97;21.15;;;7.60;99.90;;;;;;4995105;28;20103;-85
2021/11/14 06:49:57;;;;;;;57.45;21.23;;;7.60;99.90;;;;;;4994780;28;20026;-85
2021/11/14 06:52:23;;;;;;;63.08;21.98;;;7.60;99.90;;;;;;4989984;28;20041;-85
2021/11/14 06:54:52;;;;;;;70.85;22.35;;;7.60;99.90;;;;;;4990915;28;20043;-86
2021/11/14 06:57:19;;;;;;;66.57;22.27;;;7.60;99.90;;;;;;4990878;28;20031;-86
2021/11/14 06:59:45;;;;;;;66.50;22.60;;;7.60;99.90;;;;;;4991104;28;20105;-87
2021/11/14 07:02:11;;;;;;;66.13;22.02;;;7.60;99.90;;;;;;4992841;28;20034;-85
2021/11/14 07:04:37;;;;;;;64.07;21.65;;;7.60;99.90;;;;;;4985744;28;20041;-85
2021/11/14 07:07:03;;;;;;;64.32;21.23;;;7.60;99.90;;;;;;4997458;28;20490;-85
2021/11/14 07:09:29;;;;;;;69.63;22.00;;;7.60;99.90;;;;;;4988770;28;20122;-85
2021/11/14 07:11:55;;;;;;;73.60;23.20;;;7.60;99.90;;;;;;5053774;23;20129;-68
2021/11/14 07:14:26;;;;;;;70.68;22.00;;;7.70;99.90;;;;;;4987041;28;20411;-68
2021/11/14 07:16:52;;;;;;;78.05;23.38;;;7.70;99.90;;;;;;4988328;28;20046;-68
2021/11/14 07:19:18;;;;;;;82.30;24.05;;;7.70;99.90;;;;;;4985636;28;20482;-71
2021/11/14 07:21:45;;;;;;;75.13;23.92;;;7.70;99.90;;;;;;4985094;28;20033;-70
2021/11/14 07:24:11;;;;;;;85.57;25.08;;;7.70;99.90;;;;;;4986387;28;20034;-68
2021/11/14 07:26:37;;;;;;;88.80;24.00;;;7.70;99.90;;;;;;4986715;28;20034;-67
2021/11/14 07:29:03;;;;;;;75.88;22.33;;;7.70;99.90;;;;;;4987563;28;20049;-68
2021/11/14 07:31:29;;;;;;;80.25;23.63;;;7.70;99.90;;;;;;4985502;28;20030;-68
2021/11/14 07:33:54;;;;;;;89.47;24.15;;;7.70;99.90;;;;;;4988331;28;20037;-68
2021/11/14 07:36:20;;;;;;;85.40;22.92;;;7.80;99.90;;;;;;4988535;28;20470;-72
2021/11/14 07:38:47;;;;;;;97.65;24.40;;;7.80;99.90;;;;;;4988132;28;20038;-68
2021/11/14 07:41:14;;;;;;;82.53;24.85;;;7.80;99.90;;;;;;4996924;28;20017;-68
2021/11/14 07:43:39;;;;;;;84.55;22.75;;;7.80;99.90;;;;;;4984833;28;20405;-69
2021/11/14 07:46:06;;;;;;;87.30;24.85;;;7.80;99.90;;;;;;4979466;28;20031;-67
2021/11/14 07:48:32;;;;;;;87.63;24.00;;;7.80;99.90;;;;;;4972650;28;20335;-68
2021/11/14 07:50:58;;;;;;;82.47;24.25;;;7.90;99.90;;;;;;4986982;28;20023;-68
2021/11/14 07:53:24;;;;;;;89.75;24.38;;;7.90;99.90;;;;;;4988690;28;20057;-69
2021/11/14 07:55:50;;;;;;;80.07;24.08;;;7.90;99.90;;;;;;4986272;28;20054;-68
2021/11/14 07:58:16;;;;;;;86.50;24.42;;;7.90;99.90;;;;;;4989141;28;20050;-67
2021/11/14 08:00:42;;;;;;;86.47;24.23;;;7.90;99.90;;;;;;4988335;28;20061;-71
2021/11/14 08:03:10;;;;;;;93.20;25.13;;;7.90;99.90;;;;;;4987478;28;20050;-68
2021/11/14 08:05:36;;;;;;;94.40;25.05;;;7.90;99.90;;;;;;4988360;28;20025;-69
2021/11/14 08:08:02;;;;;;;96.25;26.00;;;7.90;99.90;;;;;;4989614;28;20057;-68
2021/11/14 08:10:29;;;;;;;93.25;25.30;;;7.90;99.90;;;;;;4988819;28;20034;-69
2021/11/14 08:12:55;;;;;;;98.88;26.17;;;7.90;99.90;;;;;;4988428;28;20034;-73
2021/11/14 08:15:22;;;;;;;95.63;25.33;;;7.90;99.90;;;;;;4986469;28;20030;-75
2021/11/14 08:17:47;;;;;;;96.57;25.15;;;7.90;99.90;;;;;;4982087;28;20113;-74
2021/11/14 08:20:13;;;;;;;99.03;26.13;;;7.90;99.90;;;;;;5003870;28;20096;-71
2021/11/14 08:22:39;;;;;;;90.00;25.08;;;7.90;99.90;;;;;;4976208;28;20445;-68
2021/11/14 08:25:05;;;;;;;94.15;26.13;;;7.90;99.90;;;;;;4984116;28;20061;-68
2021/11/14 08:27:32;;;;;;;103.20;27.08;;;8.00;99.90;;;;;;4988805;28;20084;-69
2021/11/14 08:29:59;;;;;;;98.72;24.83;;;8.00;99.90;;;;;;4984038;28;20025;-69
2021/11/14 08:32:26;;;;;;;90.82;25.35;;;8.00;99.90;;;;;;4984198;28;20034;-70
2021/11/14 08:34:52;;;;;;;97.05;25.95;;;8.10;99.90;;;;;;4992343;28;20018;-74
2021/11/14 08:37:18;;;;;;;85.95;25.58;;;8.10;99.90;;;;;;4985556;28;20026;-70
2021/11/14 08:39:45;;;;;;;75.93;24.00;;;8.20;99.90;;;;;;4980160;28;20140;-71
2021/11/14 08:42:12;;;;;;;79.30;25.17;;;8.20;99.90;;;;;;4988588;28;20022;-69
2021/11/14 08:44:37;;;;;;;82.22;24.20;;;8.20;99.90;;;;;;4986532;28;20034;-71
2021/11/14 08:47:04;;;;;;;78.90;25.90;;;8.30;99.90;;;;;;4978797;28;20038;-69
2021/11/14 08:49:29;;;;;;;75.50;24.35;;;8.30;99.90;;;;;;4976079;28;20491;-70
2021/11/14 08:51:55;;;;;;;77.75;24.63;;;8.40;99.90;;;;;;4986046;28;20041;-71
2021/11/14 08:54:22;;;;;;;74.93;24.75;;;8.40;99.90;;;;;;4987909;28;20547;-73
2021/11/14 08:56:49;;;;;;;76.05;23.73;;;8.40;99.90;;;;;;4992240;28;20026;-72
2021/11/14 08:59:14;;;;;;;75.18;23.50;;;8.50;99.90;;;;;;4994465;28;20023;-71
2021/11/14 09:01:40;;;;;;;85.07;25.00;;;8.50;99.90;;;;;;4970069;28;20031;-70
2021/11/14 09:04:10;;;;;;;82.38;24.83;;;8.50;99.90;;;;;;4985415;28;20550;-69
2021/11/14 09:06:39;;;;;;;88.63;24.58;;;8.60;99.90;;;;;;4986079;28;20034;-70
2021/11/14 09:09:10;;;;;;;78.05;23.42;;;8.60;99.90;;;;;;4978159;28;20773;-70
2021/11/14 09:11:37;;;;;;;81.20;24.48;;;8.50;99.90;;;;;;4970723;28;20027;-71
2021/11/14 09:14:03;;;;;;;84.40;24.75;;;8.60;99.90;;;;;;4978458;28;20121;-69
2021/11/14 09:16:28;;;;;;;87.50;25.00;;;8.50;99.90;;;;;;4977888;28;20693;-68
2021/11/14 09:18:57;;;;;;;86.18;23.83;;;8.50;99.90;;;;;;4987447;28;20035;-67
2021/11/14 09:21:23;;;;;;;83.43;24.48;;;8.50;99.90;;;;;;4987904;28;20064;-69
2021/11/14 09:23:49;;;;;;;76.93;23.15;;;8.50;99.90;;;;;;4983275;28;20081;-70
2021/11/14 09:26:15;;;;;;;78.47;23.38;;;8.50;99.90;;;;;;4980904;28;20027;-68
2021/11/14 09:28:42;;;;;;;79.13;24.63;;;8.50;99.90;;;;;;4982703;28;20027;-68
2021/11/14 09:31:09;;;;;;;73.65;23.83;;;8.50;99.90;;;;;;4983584;28;20025;-69
2021/11/14 09:33:35;;;;;;;75.50;23.10;;;8.60;99.90;;;;;;4985341;28;20023;-72
2021/11/14 09:36:02;;;;;;;68.20;23.00;;;8.60;99.90;;;;;;4988238;28;20532;-69
2021/11/14 09:38:27;;;;;;;71.80;22.60;;;8.60;99.90;;;;;;4985294;28;20101;-69
2021/11/14 09:40:53;;;;;;;64.10;21.48;;;8.60;99.90;;;;;;4977579;28;20693;-68
2021/11/14 09:43:20;;;;;;;64.38;22.75;;;8.70;99.90;;;;;;4972658;28;20023;-69
2021/11/14 09:45:46;;;;;;;67.15;22.83;;;8.70;99.90;;;;;;4987472;28;20359;-73
2021/11/14 09:48:11;;;;;;;66.82;21.33;;;8.70;99.90;;;;;;4986754;28;20049;-71
2021/11/14 09:50:37;;;;;;;64.97;22.88;;;8.70;99.90;;;;;;4987993;28;20037;-70
2021/11/14 09:53:04;;;;;;;64.50;23.35;;;8.70;99.90;;;;;;4987887;28;20030;-69
2021/11/14 09:55:34;;;;;;;61.63;22.58;;;8.70;99.90;;;;;;4979690;28;20079;-69
2021/11/14 09:58:01;;;;;;;56.50;21.35;;;8.70;99.90;;;;;;4990031;28;20118;-71
2021/11/14 10:00:28;;;;;;;57.03;21.38;;;8.70;99.90;;;;;;4976744;28;20442;-71
2021/11/14 10:02:54;;;;;;;53.45;21.45;;;8.70;99.90;;;;;;4978195;28;20073;-69
2021/11/14 10:05:20;;;;;;;55.55;21.02;;;8.70;99.90;;;;;;4988646;28;20038;-68
2021/11/14 10:07:57;;;;;;;50.88;20.77;;;8.70;99.90;;;;;;4987590;28;20052;-69
2021/11/14 10:10:29;;;;;;;52.65;20.63;;;8.70;99.90;;;;;;4980213;28;20026;-69
2021/11/14 10:12:55;;;;;;;55.13;21.77;;;8.70;99.90;;;;;;4971445;28;20031;-72
2021/11/14 10:15:22;;;;;;;49.08;20.10;;;8.70;99.90;;;;;;4974673;28;20038;-70
2021/11/14 10:17:59;;;;;;;37.53;18.30;;;8.70;99.90;;;;;;4991150;28;20031;-70
2021/11/14 10:20:31;;;;;;;40.50;17.52;;;8.70;99.90;;;;;;4990532;28;20019;-71
2021/11/14 10:23:04;;;;;;;40.40;16.77;;;8.70;99.90;;;;;;4989600;28;20033;-72
2021/11/14 10:25:30;;;;;;;35.33;16.95;;;8.70;99.90;;;;;;4985111;28;20034;-70
2021/11/14 10:27:59;;;;;;;37.58;18.25;;;8.70;99.90;;;;;;4992485;28;20026;-69
2021/11/14 10:30:28;;;;;;;36.05;16.42;;;8.70;99.90;;;;;;4983598;28;20162;-73
2021/11/14 10:33:00;;;;;;;33.75;16.15;;;8.70;99.90;;;;;;4983337;28;20026;-69
2021/11/14 10:35:27;;;;;;;32.65;16.50;;;8.70;99.90;;;;;;4986877;28;20111;-68
2021/11/14 10:37:55;;;;;;;33.28;15.65;;;8.90;99.90;;;;;;4990457;28;20033;-68
2021/11/14 10:40:26;;;;;;;28.40;14.80;;;8.90;99.90;;;;;;4988532;28;20023;-68
2021/11/14 10:42:57;;;;;;;34.58;17.02;;;9.10;99.90;;;;;;4984079;28;20022;-71
2021/11/14 10:45:25;;;;;;;32.03;15.73;;;9.10;99.90;;;;;;4983954;28;20506;-71
2021/11/14 10:48:06;;;;;;;30.23;14.82;;;9.10;99.90;;;;;;4984707;28;20034;-67
2021/11/14 10:50:35;;;;;;;31.77;16.02;;;9.20;99.90;;;;;;4989288;28;20477;-71
2021/11/14 10:53:07;;;;;;;29.75;14.80;;;9.30;99.90;;;;;;4989104;28;20023;-67
2021/11/14 10:55:42;;;;;;;31.50;15.00;;;9.40;99.90;;;;;;4989134;28;20022;-68
2021/11/14 10:58:09;;;;;;;33.72;15.10;;;9.40;99.90;;;;;;4984164;28;20034;-69
2021/11/14 11:00:37;;;;;;;34.40;15.70;;;9.40;99.90;;;;;;4989596;28;20030;-68
2021/11/14 11:03:04;;;;;;;32.67;14.95;;;9.40;99.90;;;;;;4981738;28;20177;-67
2021/11/14 11:05:32;;;;;;;30.83;15.48;;;9.40;99.90;;;;;;4991356;28;20048;-69
2021/11/14 11:08:18;;;;;;;29.80;15.13;;;9.40;99.90;;;;;;4986712;28;20033;-68
2021/11/14 11:10:47;;;;;;;32.03;15.35;;;9.40;99.90;;;;;;4979453;28;20027;-72
2021/11/14 11:13:16;;;;;;;33.28;15.82;;;9.40;99.90;;;;;;4984755;28;20106;-71
2021/11/14 11:15:48;;;;;;;35.13;16.88;;;9.50;99.90;;;;;;4988012;28;20488;-69
2021/11/14 11:18:15;;;;;;;35.13;16.27;;;9.60;99.90;;;;;;4979911;28;20489;-68
2021/11/14 11:20:43;;;;;;;29.85;15.63;;;9.60;99.90;;;;;;5064267;28;20804;-70
2021/11/14 11:23:14;;;;;;;35.40;15.50;;;9.60;99.90;;;;;;4982165;28;20034;-73
2021/11/14 11:25:41;;;;;;;28.02;14.05;;;9.60;99.90;;;;;;4984018;28;20121;-71
2021/11/14 11:28:10;;;;;;;31.20;14.65;;;9.60;99.90;;;;;;4982885;28;20041;-68
2021/11/14 11:30:42;;;;;;;31.42;15.52;;;9.60;99.90;;;;;;4986370;28;20703;-68
2021/11/14 11:33:08;;;;;;;32.13;15.43;;;9.60;99.90;;;;;;4986017;28;20035;-71
2021/11/14 11:35:35;;;;;;;29.02;15.00;;;9.60;99.90;;;;;;4985282;28;20026;-69
2021/11/14 11:38:03;;;;;;;31.00;14.48;;;9.60;99.90;;;;;;4986808;28;20030;-68
2021/11/14 11:40:29;;;;;;;26.15;14.27;;;9.60;99.90;;;;;;4987637;28;20033;-70
2021/11/14 11:42:54;;;;;;;26.42;13.60;;;9.70;99.90;;;;;;4976694;28;20030;-71
2021/11/14 11:45:33;;;;;;;25.38;13.45;;;9.80;99.90;;;;;;4986066;28;20038;-68
2021/11/14 11:48:04;;;;;;;25.85;14.27;;;9.90;99.90;;;;;;4972444;28;20030;-68
2021/11/14 11:50:32;;;;;;;27.05;13.70;;;10.00;99.90;;;;;;4990958;28;20022;-68
2021/11/14 11:52:59;;;;;;;26.80;14.18;;;10.10;99.90;;;;;;4988517;28;20030;-67
2021/11/14 11:55:29;;;;;;;27.75;14.35;;;10.10;99.90;;;;;;4988467;28;20018;-68
2021/11/14 11:58:16;;;;;;;27.60;13.80;;;10.30;99.90;;;;;;4989395;28;20026;-69
2021/11/14 12:01:00;;;;;;;25.42;12.30;;;10.50;99.90;;;;;;4988332;28;20030;-69
2021/11/14 12:03:31;;;;;;;23.85;12.70;;;10.50;99.90;;;;;;4982123;28;20121;-68
2021/11/14 12:05:59;;;;;;;22.30;12.30;;;10.40;99.90;;;;;;4974204;28;20030;-68
2021/11/14 12:08:46;;;;;;;26.55;13.55;;;10.30;99.90;;;;;;4974173;28;20569;-69
2021/11/14 12:11:25;;;;;;;27.35;15.38;;;10.30;99.90;;;;;;4984062;28;20587;-71
2021/11/14 12:13:51;;;;;;;28.15;15.10;;;10.20;99.90;;;;;;4987951;28;20038;-69
2021/11/14 12:16:30;;;;;;;29.02;14.90;;;10.20;99.90;;;;;;4988603;28;20505;-70
2021/11/14 12:18:56;;;;;;;28.88;14.40;;;10.20;99.90;;;;;;4988612;28;20087;-68
2021/11/14 12:21:22;;;;;;;24.55;13.05;;;10.20;99.90;;;;;;4987913;28;20030;-71
2021/11/14 12:24:09;;;;;;;27.77;14.00;;;10.20;99.90;;;;;;4987728;28;20159;-69
2021/11/14 12:26:36;;;;;;;28.65;13.57;;;10.10;99.90;;;;;;4981798;28;20482;-69
2021/11/14 12:29:08;;;;;;;30.80;14.32;;;10.10;99.90;;;;;;4985003;28;20026;-69
2021/11/14 12:31:46;;;;;;;30.13;14.07;;;10.10;99.90;;;;;;4984908;28;20037;-69
2021/11/14 12:34:22;;;;;;;27.45;13.85;;;10.00;99.90;;;;;;4985540;28;20168;-69
2021/11/14 12:36:48;;;;;;;27.75;13.80;;;10.00;99.90;;;;;;4982402;28;20049;-69
2021/11/14 12:39:19;;;;;;;28.58;13.02;;;9.90;99.90;;;;;;4980305;28;20379;-69
2021/11/14 12:42:21;;;;;;;24.77;13.75;;;9.90;99.90;;;;;;4971758;28;20025;-70